Time;durP1;ratioP1;P1;durP2;ratioP2;P2;SDS_P1;SDS_P2;PMS_P1;PMS_P2;Temp;Humidity;BMP_temperature;BMP_pressure;BME280_temperature;BME280_humidity;BME280_pressure;Samples;Min_cycle;Max_cycle;Signal;HPM_P1;HPM_P2
2023/09/07 00:01:26;;;;;;;2.42;1.95;;;21.90;99.90;;;;;;5072418;28;20488;-38
2023/09/07 00:03:51;;;;;;;4.07;2.58;;;21.90;99.90;;;;;;5071708;28;20052;-37
2023/09/07 00:06:17;;;;;;;3.60;2.20;;;21.90;99.90;;;;;;5072385;28;20090;-38
2023/09/07 00:08:44;;;;;;;2.20;1.90;;;21.90;99.90;;;;;;5072170;28;20493;-35
2023/09/07 00:11:10;;;;;;;2.42;1.92;;;21.80;99.90;;;;;;5072147;28;20408;-39
2023/09/07 00:13:36;;;;;;;3.47;2.10;;;21.90;99.90;;;;;;5072093;28;20074;-40
2023/09/07 00:16:03;;;;;;;8.85;2.40;;;21.80;99.90;;;;;;5070800;28;20024;-39
2023/09/07 00:18:32;;;;;;;3.53;1.80;;;21.90;99.90;;;;;;5071947;28;20024;-39
2023/09/07 00:20:59;;;;;;;4.43;2.05;;;21.90;99.90;;;;;;5071813;28;20481;-38
2023/09/07 00:23:25;;;;;;;3.08;2.17;;;21.90;99.90;;;;;;5071928;28;20062;-35
2023/09/07 00:25:51;;;;;;;1.92;1.65;;;21.80;99.90;;;;;;5071913;28;20020;-36
2023/09/07 00:28:17;;;;;;;4.40;2.30;;;21.80;99.90;;;;;;5071817;28;20028;-35
2023/09/07 00:30:43;;;;;;;3.03;2.00;;;21.80;99.90;;;;;;5070362;28;20107;-38
2023/09/07 00:33:09;;;;;;;3.17;1.95;;;21.80;99.90;;;;;;5071777;28;20496;-38
2023/09/07 00:35:35;;;;;;;2.35;1.90;;;21.80;99.90;;;;;;5071636;28;20394;-38
2023/09/07 00:38:01;;;;;;;2.58;1.92;;;21.80;99.90;;;;;;5071741;28;20020;-38
2023/09/07 00:40:26;;;;;;;2.22;1.70;;;21.80;99.90;;;;;;5071414;28;20050;-38
2023/09/07 00:42:53;;;;;;;3.45;2.10;;;21.80;99.90;;;;;;5071527;28;20033;-39
2023/09/07 00:45:18;;;;;;;3.22;2.00;;;21.80;99.90;;;;;;5071569;28;20025;-38
2023/09/07 00:47:45;;;;;;;3.85;1.92;;;21.80;99.90;;;;;;5071623;28;20037;-38
2023/09/07 00:50:14;;;;;;;2.70;2.05;;;21.80;99.90;;;;;;5070259;28;20032;-37
2023/09/07 00:52:42;;;;;;;2.63;1.98;;;21.80;99.90;;;;;;5071560;28;20096;-38
2023/09/07 00:55:09;;;;;;;2.15;1.88;;;21.80;99.90;;;;;;5071414;28;20050;-38
2023/09/07 00:57:36;;;;;;;4.45;2.17;;;21.80;99.90;;;;;;5071478;28;20055;-38
2023/09/07 01:00:04;;;;;;;4.85;2.30;;;21.80;99.90;;;;;;5071113;28;20099;-37
2023/09/07 01:02:31;;;;;;;6.80;2.00;;;21.80;99.90;;;;;;5071440;28;20047;-36
2023/09/07 01:04:56;;;;;;;4.20;2.00;;;21.80;99.90;;;;;;5071246;28;20028;-40
2023/09/07 01:07:29;;;;;;;3.13;1.92;;;21.80;99.90;;;;;;5071350;28;20017;-40
2023/09/07 01:09:58;;;;;;;2.97;1.70;;;21.80;99.90;;;;;;5071163;28;20021;-38
2023/09/07 01:12:24;;;;;;;3.47;1.67;;;21.80;99.90;;;;;;5071338;28;20025;-37
2023/09/07 01:14:49;;;;;;;3.45;1.95;;;21.80;99.90;;;;;;5071049;28;20024;-35
2023/09/07 01:17:16;;;;;;;3.28;1.83;;;21.80;99.90;;;;;;5071331;28;20346;-43
2023/09/07 01:19:41;;;;;;;3.50;2.05;;;21.80;99.90;;;;;;5070880;28;20383;-45
2023/09/07 01:22:11;;;;;;;3.08;2.15;;;21.80;99.90;;;;;;5071256;28;20023;-41
2023/09/07 01:24:38;;;;;;;4.28;2.10;;;21.80;99.90;;;;;;5071060;28;20470;-41
2023/09/07 01:27:05;;;;;;;3.10;2.13;;;21.80;99.90;;;;;;5071343;28;20032;-38
2023/09/07 01:29:31;;;;;;;3.13;1.85;;;21.80;99.90;;;;;;5071015;28;20060;-40
2023/09/07 01:31:57;;;;;;;2.67;1.92;;;21.80;99.90;;;;;;5071187;28;20029;-38
2023/09/07 01:34:23;;;;;;;4.03;2.00;;;21.80;99.90;;;;;;5070952;28;20465;-42
2023/09/07 01:36:49;;;;;;;2.35;1.58;;;21.80;99.90;;;;;;5070986;28;20032;-42
2023/09/07 01:39:16;;;;;;;3.65;1.88;;;21.70;99.90;;;;;;5070703;28;20485;-44
2023/09/07 01:41:42;;;;;;;3.88;2.10;;;21.70;99.90;;;;;;5071239;28;20482;-38
2023/09/07 01:44:08;;;;;;;2.53;2.22;;;21.70;99.90;;;;;;5071148;28;20017;-35
2023/09/07 01:46:35;;;;;;;3.05;2.05;;;21.70;99.90;;;;;;5071047;28;20099;-39
2023/09/07 01:49:02;;;;;;;3.47;2.10;;;21.70;99.90;;;;;;5070716;28;20271;-39
2023/09/07 01:51:27;;;;;;;3.42;2.13;;;21.70;99.90;;;;;;5070806;28;20053;-39
2023/09/07 01:53:54;;;;;;;4.93;1.90;;;21.70;99.90;;;;;;5070850;28;20021;-39
2023/09/07 01:56:19;;;;;;;3.22;2.08;;;21.70;99.90;;;;;;5070962;28;20506;-40
2023/09/07 01:58:45;;;;;;;5.82;1.75;;;21.70;99.90;;;;;;5070695;28;20028;-38
2023/09/07 02:01:25;;;;;;;5.30;1.73;;;21.70;99.90;;;;;;5070775;28;20103;-39
2023/09/07 02:03:51;;;;;;;2.85;1.83;;;21.70;99.90;;;;;;5069400;28;20402;-39
2023/09/07 02:06:16;;;;;;;2.92;1.65;;;21.70;99.90;;;;;;5070780;28;20107;-40
2023/09/07 02:08:42;;;;;;;3.88;1.90;;;21.70;99.90;;;;;;5070651;28;20435;-38
2023/09/07 02:11:07;;;;;;;2.83;1.95;;;21.70;99.90;;;;;;5070623;28;20071;-35
2023/09/07 02:13:33;;;;;;;3.83;1.90;;;21.70;99.90;;;;;;5069389;28;20028;-35
2023/09/07 02:16:04;;;;;;;5.97;1.98;;;21.70;99.90;;;;;;5070732;28;20081;-39
2023/09/07 02:18:29;;;;;;;4.07;2.08;;;21.60;99.90;;;;;;5070414;28;20090;-38
2023/09/07 02:21:00;;;;;;;2.40;1.67;;;21.70;99.90;;;;;;5070606;28;20447;-38
2023/09/07 02:23:26;;;;;;;2.25;1.60;;;21.60;99.90;;;;;;5070701;28;20028;-38
2023/09/07 02:25:51;;;;;;;2.05;1.50;;;21.60;99.90;;;;;;5070896;28;20029;-37
2023/09/07 02:28:17;;;;;;;6.20;2.05;;;21.60;99.90;;;;;;5074211;28;20060;-38
2023/09/07 02:30:42;;;;;;;2.80;1.88;;;21.60;99.90;;;;;;5073953;28;20040;-38
2023/09/07 02:33:08;;;;;;;3.38;2.10;;;21.60;99.90;;;;;;5074005;28;20021;-37
2023/09/07 02:35:37;;;;;;;3.67;2.00;;;21.60;99.90;;;;;;5073988;28;20021;-38
2023/09/07 02:38:02;;;;;;;2.78;1.80;;;21.60;99.90;;;;;;5074076;28;20124;-42
2023/09/07 02:40:28;;;;;;;2.70;1.92;;;21.60;99.90;;;;;;5074068;28;20189;-39
2023/09/07 02:42:54;;;;;;;6.40;2.10;;;21.60;99.90;;;;;;5073995;28;20021;-39
2023/09/07 02:45:19;;;;;;;3.17;1.90;;;21.60;99.90;;;;;;5074351;28;20401;-42
2023/09/07 02:47:46;;;;;;;2.38;1.55;;;21.60;99.90;;;;;;5073776;28;20028;-38
2023/09/07 02:50:13;;;;;;;3.85;1.80;;;21.60;99.90;;;;;;5072248;28;20399;-39
2023/09/07 02:52:39;;;;;;;3.40;1.55;;;21.60;99.90;;;;;;5073786;28;20027;-38
2023/09/07 02:55:06;;;;;;;3.30;1.50;;;21.60;99.90;;;;;;5074097;28;20025;-40
2023/09/07 02:57:32;;;;;;;3.33;1.90;;;21.60;99.90;;;;;;5073806;28;20036;-38
2023/09/07 02:59:57;;;;;;;5.43;1.58;;;21.60;99.90;;;;;;5073383;28;20021;-39
2023/09/07 03:02:23;;;;;;;2.88;1.75;;;21.60;99.90;;;;;;5073467;28;20497;-37
2023/09/07 03:04:54;;;;;;;2.33;1.70;;;21.60;99.90;;;;;;5073486;28;20032;-39
2023/09/07 03:07:20;;;;;;;3.72;2.00;;;21.60;99.90;;;;;;5073600;28;20100;-36
2023/09/07 03:09:45;;;;;;;3.08;1.65;;;21.60;99.90;;;;;;5073253;28;20115;-36
2023/09/07 03:12:11;;;;;;;2.97;1.63;;;21.60;99.90;;;;;;5073398;28;20021;-35
2023/09/07 03:14:37;;;;;;;3.10;1.88;;;21.60;99.90;;;;;;5073529;28;20041;-37
2023/09/07 03:17:03;;;;;;;2.08;1.55;;;21.60;99.90;;;;;;5073204;28;20075;-36
2023/09/07 03:19:29;;;;;;;2.22;1.80;;;21.50;99.90;;;;;;5072941;28;20120;-35
2023/09/07 03:21:55;;;;;;;7.53;1.85;;;21.50;99.90;;;;;;5073274;28;20091;-41
2023/09/07 03:24:20;;;;;;;4.10;1.95;;;21.60;99.90;;;;;;5073398;28;20024;-37
2023/09/07 03:26:46;;;;;;;2.97;2.00;;;21.50;99.90;;;;;;5073134;28;20465;-38
2023/09/07 03:29:11;;;;;;;3.33;1.70;;;21.50;99.90;;;;;;5072843;28;20025;-37
2023/09/07 03:31:37;;;;;;;2.25;1.70;;;21.50;99.90;;;;;;5072919;28;20035;-42
2023/09/07 03:34:03;;;;;;;4.78;1.85;;;21.50;99.90;;;;;;5072932;28;20443;-37
2023/09/07 03:36:28;;;;;;;2.25;1.90;;;21.50;99.90;;;;;;5072954;28;20029;-39
2023/09/07 03:38:54;;;;;;;2.63;1.90;;;21.50;99.90;;;;;;5072712;28;20028;-37
2023/09/07 03:41:19;;;;;;;3.17;1.95;;;21.50;99.90;;;;;;5072878;28;20074;-38
2023/09/07 03:43:45;;;;;;;3.38;1.80;;;21.50;99.90;;;;;;5072840;28;20088;-37
2023/09/07 03:46:11;;;;;;;2.97;2.00;;;21.50;99.90;;;;;;5073085;28;20024;-35
2023/09/07 03:48:36;;;;;;;2.00;1.70;;;21.50;99.90;;;;;;5072718;28;20393;-38
2023/09/07 03:51:06;;;;;;;3.10;1.88;;;21.50;99.90;;;;;;5072488;28;20025;-36
2023/09/07 03:53:32;;;;;;;2.35;2.03;;;21.50;99.90;;;;;;5072626;28;20505;-35
2023/09/07 03:55:57;;;;;;;3.58;1.65;;;21.50;99.90;;;;;;5072525;28;20032;-41
2023/09/07 03:58:23;;;;;;;4.03;2.00;;;21.50;99.90;;;;;;5072459;28;20025;-39
2023/09/07 04:00:49;;;;;;;2.50;1.80;;;21.50;99.90;;;;;;5072153;28;20032;-41
2023/09/07 04:03:15;;;;;;;2.15;1.70;;;21.50;99.90;;;;;;5072364;28;20382;-38
2023/09/07 04:05:40;;;;;;;3.00;2.00;;;21.50;99.90;;;;;;5072250;28;20028;-43
2023/09/07 04:08:07;;;;;;;2.00;1.70;;;21.50;99.90;;;;;;5072351;28;20032;-36
2023/09/07 04:10:33;;;;;;;3.03;1.77;;;21.40;99.90;;;;;;5072060;28;20032;-37
2023/09/07 04:12:58;;;;;;;2.28;2.08;;;21.40;99.90;;;;;;5070834;28;20024;-38
2023/09/07 04:15:25;;;;;;;3.20;1.65;;;21.40;99.90;;;;;;5071993;28;20024;-39
2023/09/07 04:17:51;;;;;;;3.25;2.10;;;21.50;99.90;;;;;;5072157;28;20520;-38
2023/09/07 04:20:17;;;;;;;3.65;1.73;;;21.40;99.90;;;;;;5070863;28;20029;-35
2023/09/07 04:22:42;;;;;;;3.00;1.88;;;21.40;99.90;;;;;;5072170;28;20043;-39
2023/09/07 04:25:08;;;;;;;2.38;1.92;;;21.40;99.90;;;;;;5072090;28;20096;-38
2023/09/07 04:27:34;;;;;;;3.97;1.85;;;21.40;99.90;;;;;;5071878;28;20428;-38
2023/09/07 04:30:00;;;;;;;2.33;1.70;;;21.40;99.90;;;;;;5071566;28;20025;-37
2023/09/07 04:32:25;;;;;;;2.10;1.60;;;21.40;99.90;;;;;;5071918;28;20020;-38
2023/09/07 04:34:56;;;;;;;3.20;1.63;;;21.40;99.90;;;;;;5071932;28;20509;-38
2023/09/07 04:37:22;;;;;;;1.80;1.60;;;21.40;99.90;;;;;;5071780;28;20446;-38
2023/09/07 04:39:54;;;;;;;2.05;1.70;;;21.40;99.90;;;;;;5071495;28;20162;-37
2023/09/07 04:42:20;;;;;;;4.85;1.73;;;21.40;99.90;;;;;;5071624;28;20104;-38
2023/09/07 04:44:47;;;;;;;2.25;1.65;;;21.40;99.90;;;;;;5071618;28;20104;-38
2023/09/07 04:47:13;;;;;;;2.88;1.90;;;21.40;99.90;;;;;;5071743;28;20027;-39
2023/09/07 04:49:39;;;;;;;2.03;1.70;;;21.40;99.90;;;;;;5070983;28;20021;-38
2023/09/07 04:52:05;;;;;;;5.95;2.00;;;21.40;99.90;;;;;;5071542;28;20462;-38
2023/09/07 04:54:30;;;;;;;3.83;1.98;;;21.40;99.90;;;;;;5071458;28;20041;-37
2023/09/07 04:56:56;;;;;;;3.58;2.00;;;21.40;99.90;;;;;;5071445;28;20032;-35
2023/09/07 04:59:22;;;;;;;4.55;1.85;;;21.40;99.90;;;;;;5071153;28;20035;-36
2023/09/07 05:01:47;;;;;;;2.60;1.80;;;21.40;99.90;;;;;;5071483;28;20052;-42
2023/09/07 05:04:13;;;;;;;2.38;1.90;;;21.30;99.90;;;;;;5071345;28;20056;-44
2023/09/07 05:06:40;;;;;;;3.05;1.75;;;21.30;99.90;;;;;;5071467;28;20493;-38
2023/09/07 05:09:06;;;;;;;3.75;1.65;;;21.30;99.90;;;;;;5071201;28;20543;-39
2023/09/07 05:11:34;;;;;;;2.85;1.80;;;21.30;99.90;;;;;;5071534;28;20048;-39
2023/09/07 05:14:01;;;;;;;7.57;2.25;;;21.30;99.90;;;;;;5071983;28;20020;-40
2023/09/07 05:16:26;;;;;;;5.22;2.00;;;21.30;99.90;;;;;;5073426;28;20025;-39
2023/09/07 05:18:52;;;;;;;2.53;1.75;;;21.30;99.90;;;;;;5072007;28;20029;-40
2023/09/07 05:21:17;;;;;;;4.40;1.70;;;21.30;99.90;;;;;;5071787;28;20028;-37
2023/09/07 05:23:43;;;;;;;2.70;1.83;;;21.30;99.90;;;;;;5071616;28;20517;-39
2023/09/07 05:26:09;;;;;;;2.53;1.85;;;21.30;99.90;;;;;;5071272;28;20024;-38
2023/09/07 05:28:35;;;;;;;2.35;1.77;;;21.30;99.90;;;;;;5072319;28;20024;-38
2023/09/07 05:31:01;;;;;;;4.45;2.20;;;21.30;99.90;;;;;;5071643;28;20151;-38
2023/09/07 05:33:26;;;;;;;2.30;1.67;;;21.30;99.90;;;;;;5071366;28;20023;-38
2023/09/07 05:35:52;;;;;;;3.85;1.83;;;21.30;99.90;;;;;;5071905;28;20024;-41
2023/09/07 05:38:20;;;;;;;2.10;1.73;;;21.30;99.90;;;;;;5072170;28;20025;-44
2023/09/07 05:40:50;;;;;;;7.82;1.85;;;21.30;99.90;;;;;;5069750;28;20039;-43
2023/09/07 05:43:15;;;;;;;3.40;1.90;;;21.30;99.90;;;;;;5071499;28;20032;-38
2023/09/07 05:45:42;;;;;;;3.33;1.60;;;21.30;99.90;;;;;;5071525;28;20024;-39
2023/09/07 05:48:08;;;;;;;3.53;1.98;;;21.30;99.90;;;;;;5071719;28;20021;-39
2023/09/07 05:50:36;;;;;;;1.83;1.48;;;21.30;99.90;;;;;;5071727;28;20025;-41
2023/09/07 05:53:02;;;;;;;3.63;2.05;;;21.30;99.90;;;;;;5071330;28;20595;-39
2023/09/07 05:55:28;;;;;;;3.28;1.75;;;21.30;99.90;;;;;;5071110;28;20037;-42
2023/09/07 05:57:55;;;;;;;3.05;1.95;;;21.30;99.90;;;;;;5071405;28;20029;-39
2023/09/07 06:00:21;;;;;;;1.83;1.50;;;21.30;99.90;;;;;;5070937;28;20032;-39
2023/09/07 06:02:47;;;;;;;4.10;2.10;;;21.30;99.90;;;;;;5074841;28;20504;-41
2023/09/07 06:05:13;;;;;;;2.90;1.60;;;21.30;99.90;;;;;;5075094;28;20104;-41
2023/09/07 06:07:39;;;;;;;2.35;1.95;;;21.30;99.90;;;;;;5074904;28;20082;-39
2023/09/07 06:10:08;;;;;;;5.32;2.20;;;21.30;99.90;;;;;;5074599;28;20534;-42
2023/09/07 06:12:34;;;;;;;3.10;2.00;;;21.30;99.90;;;;;;5074900;28;20029;-39
2023/09/07 06:15:01;;;;;;;2.08;1.70;;;21.30;99.90;;;;;;5074889;28;20029;-41
2023/09/07 06:17:27;;;;;;;3.33;1.80;;;21.30;99.90;;;;;;5074771;28;20382;-37
2023/09/07 06:19:53;;;;;;;2.10;1.90;;;21.30;99.90;;;;;;5074110;28;20386;-38
2023/09/07 06:22:19;;;;;;;3.47;1.85;;;21.30;99.90;;;;;;5074278;28;20032;-38
2023/09/07 06:24:44;;;;;;;3.28;1.55;;;21.30;99.90;;;;;;5074221;28;20021;-38
2023/09/07 06:27:10;;;;;;;2.10;1.67;;;21.30;99.90;;;;;;5074327;28;20389;-38
2023/09/07 06:29:35;;;;;;;3.92;1.60;;;21.30;99.90;;;;;;5074156;28;20110;-38
2023/09/07 06:32:01;;;;;;;1.85;1.50;;;21.30;99.90;;;;;;5074123;28;20031;-38
2023/09/07 06:34:27;;;;;;;3.28;1.70;;;21.30;99.90;;;;;;5074506;28;20029;-38
2023/09/07 06:36:52;;;;;;;1.63;1.50;;;21.30;99.90;;;;;;5074047;28;20046;-38
2023/09/07 06:39:18;;;;;;;1.83;1.55;;;21.30;99.90;;;;;;5072410;28;20491;-38
2023/09/07 06:41:46;;;;;;;1.63;1.40;;;21.30;99.90;;;;;;5073975;28;20036;-38
2023/09/07 06:44:11;;;;;;;4.43;1.73;;;21.30;99.90;;;;;;5073843;28;20036;-38
2023/09/07 06:46:37;;;;;;;2.60;1.60;;;21.40;99.90;;;;;;5073960;28;20090;-40
2023/09/07 06:49:03;;;;;;;2.45;1.50;;;21.40;99.90;;;;;;5073714;28;20028;-38
2023/09/07 06:51:30;;;;;;;1.60;1.40;;;21.40;99.90;;;;;;5073731;28;20095;-39
2023/09/07 06:53:56;;;;;;;1.63;1.50;;;21.40;99.90;;;;;;5073773;28;20107;-40
2023/09/07 06:56:22;;;;;;;2.45;1.52;;;21.30;99.90;;;;;;5073676;28;20016;-42
2023/09/07 06:58:48;;;;;;;1.77;1.40;;;21.40;99.90;;;;;;5073838;28;20370;-39
2023/09/07 07:01:13;;;;;;;2.25;1.60;;;21.40;99.90;;;;;;5073622;28;20538;-39
2023/09/07 07:03:39;;;;;;;2.17;1.63;;;21.40;99.90;;;;;;5073664;28;20024;-39
2023/09/07 07:06:04;;;;;;;2.53;1.60;;;21.40;99.90;;;;;;5073352;28;20485;-39
2023/09/07 07:08:30;;;;;;;2.15;1.70;;;21.40;99.90;;;;;;5073536;28;20074;-39
2023/09/07 07:10:56;;;;;;;1.90;1.50;;;21.40;99.90;;;;;;5073451;28;20466;-42
2023/09/07 07:13:21;;;;;;;3.22;1.50;;;21.40;99.90;;;;;;5073103;28;20016;-39
2023/09/07 07:15:47;;;;;;;1.55;1.40;;;21.40;99.90;;;;;;5073507;28;20382;-38
2023/09/07 07:18:13;;;;;;;1.90;1.42;;;21.40;99.90;;;;;;5073311;28;20111;-39
2023/09/07 07:20:39;;;;;;;1.50;1.40;;;21.40;99.90;;;;;;5072910;28;20367;-39
2023/09/07 07:23:08;;;;;;;1.98;1.55;;;21.50;99.90;;;;;;5073227;28;20503;-39
2023/09/07 07:25:34;;;;;;;2.20;1.60;;;21.50;99.90;;;;;;5073099;28;20028;-39
2023/09/07 07:28:05;;;;;;;4.05;1.55;;;21.40;99.90;;;;;;5073215;28;20470;-39
2023/09/07 07:30:32;;;;;;;2.45;1.50;;;21.50;99.90;;;;;;5073016;28;20039;-42
2023/09/07 07:32:58;;;;;;;2.08;1.58;;;21.50;99.90;;;;;;5073077;28;20505;-40
2023/09/07 07:35:24;;;;;;;1.60;1.50;;;21.50;99.90;;;;;;5072892;28;20103;-39
2023/09/07 07:37:50;;;;;;;1.92;1.65;;;21.50;99.90;;;;;;5072988;28;20109;-42
2023/09/07 07:40:17;;;;;;;2.05;1.52;;;21.50;99.90;;;;;;5072500;28;20478;-39
2023/09/07 07:42:43;;;;;;;2.10;1.60;;;21.50;99.90;;;;;;5072808;28;20039;-39
2023/09/07 07:45:09;;;;;;;2.63;1.60;;;21.50;99.90;;;;;;5072802;28;20039;-42
2023/09/07 07:47:35;;;;;;;1.80;1.60;;;21.50;99.90;;;;;;5072769;28;20482;-43
2023/09/07 07:50:00;;;;;;;2.63;1.45;;;21.50;99.90;;;;;;5072411;28;20505;-39
2023/09/07 07:52:26;;;;;;;3.33;1.27;;;21.50;99.90;;;;;;5072870;28;20021;-42
2023/09/07 07:54:53;;;;;;;3.97;1.60;;;21.50;99.90;;;;;;5072505;28;20333;-39
2023/09/07 07:57:18;;;;;;;4.35;1.70;;;21.50;99.90;;;;;;5072597;28;20024;-39
2023/09/07 07:59:44;;;;;;;1.90;1.70;;;21.50;99.90;;;;;;5072197;28;20032;-42
2023/09/07 08:02:10;;;;;;;3.15;1.63;;;21.50;99.90;;;;;;5072448;28;20031;-39
2023/09/07 08:04:35;;;;;;;2.75;1.40;;;21.50;99.90;;;;;;5072266;28;20012;-39
2023/09/07 08:07:04;;;;;;;1.60;1.30;;;21.50;99.90;;;;;;5072382;28;20025;-40
2023/09/07 08:09:30;;;;;;;2.97;1.42;;;21.60;99.90;;;;;;5072082;28;20028;-39
2023/09/07 08:11:57;;;;;;;2.67;1.60;;;21.50;99.90;;;;;;5072276;28;20534;-39
2023/09/07 08:14:24;;;;;;;4.32;1.60;;;21.50;99.90;;;;;;5072106;28;20025;-43
2023/09/07 08:16:49;;;;;;;3.58;1.73;;;21.50;99.90;;;;;;5072049;28;20047;-39
2023/09/07 08:19:15;;;;;;;1.88;1.33;;;21.60;99.90;;;;;;5071659;28;20482;-42
2023/09/07 08:21:42;;;;;;;2.58;1.60;;;21.60;99.90;;;;;;5072076;28;20389;-42
2023/09/07 08:24:08;;;;;;;4.03;1.70;;;21.60;99.90;;;;;;5071207;28;20543;-41
2023/09/07 08:26:35;;;;;;;2.33;1.55;;;21.60;99.90;;;;;;5072206;28;20202;-41
2023/09/07 08:29:05;;;;;;;1.85;1.50;;;21.60;99.90;;;;;;5070675;28;20032;-39
2023/09/07 08:31:34;;;;;;;2.20;1.63;;;21.60;99.90;;;;;;5072524;28;20119;-42
2023/09/07 08:34:05;;;;;;;1.98;1.65;;;21.60;99.90;;;;;;5072078;28;20028;-38
2023/09/07 08:36:34;;;;;;;9.80;3.22;;;21.60;99.90;;;;;;5071848;28;20142;-41
2023/09/07 08:39:05;;;;;;;9.10;3.38;;;21.60;99.90;;;;;;5071490;28;20062;-46
2023/09/07 08:41:41;;;;;;;8.80;3.33;;;21.70;99.90;;;;;;5071896;28;20082;-41
2023/09/07 08:44:09;;;;;;;9.95;3.70;;;21.80;99.90;;;;;;5071539;28;20017;-42
2023/09/07 08:46:36;;;;;;;5.05;3.20;;;21.70;99.90;;;;;;5071714;28;20027;-40
2023/09/07 08:49:03;;;;;;;4.20;2.90;;;21.80;99.90;;;;;;5071461;28;20024;-41
2023/09/07 08:51:28;;;;;;;6.05;2.63;;;21.70;99.90;;;;;;5071677;28;20109;-43
2023/09/07 08:53:56;;;;;;;8.00;2.67;;;21.70;99.90;;;;;;5071429;28;20099;-41
2023/09/07 08:56:22;;;;;;;3.88;2.45;;;21.70;99.90;;;;;;5071477;28;20035;-41
2023/09/07 08:58:50;;;;;;;4.18;2.80;;;21.80;99.90;;;;;;5071480;28;20386;-40
2023/09/07 09:01:17;;;;;;;5.25;2.55;;;21.80;99.90;;;;;;5071427;28;20432;-44
2023/09/07 09:03:43;;;;;;;4.57;2.85;;;21.80;99.90;;;;;;5071488;28;20028;-41
2023/09/07 09:06:10;;;;;;;7.55;3.15;;;21.80;99.90;;;;;;5071363;28;20520;-44
2023/09/07 09:08:50;;;;;;;6.85;3.00;;;21.80;99.90;;;;;;5071342;28;20024;-44
2023/09/07 09:11:18;;;;;;;5.40;2.70;;;21.80;99.90;;;;;;5071244;28;20017;-42
2023/09/07 09:13:45;;;;;;;4.65;2.78;;;21.80;99.90;;;;;;5071303;28;20391;-42
2023/09/07 09:16:12;;;;;;;8.30;2.75;;;21.80;99.90;;;;;;5071229;28;20506;-41
2023/09/07 09:18:46;;;;;;;5.93;2.65;;;21.80;99.90;;;;;;5071384;28;20065;-39
2023/09/07 09:21:14;;;;;;;4.72;2.53;;;21.80;99.90;;;;;;5072499;28;20021;-39
2023/09/07 09:23:40;;;;;;;5.07;2.88;;;21.90;99.90;;;;;;5072398;28;20025;-39
2023/09/07 09:26:06;;;;;;;6.82;2.50;;;21.80;99.90;;;;;;5071385;28;20465;-39
2023/09/07 09:28:35;;;;;;;3.92;2.63;;;21.90;99.90;;;;;;5071213;28;20122;-39
2023/09/07 09:31:02;;;;;;;4.82;2.50;;;21.90;99.90;;;;;;5070986;28;20490;-38
2023/09/07 09:33:31;;;;;;;2.78;2.35;;;21.90;99.90;;;;;;5071143;28;20032;-36
2023/09/07 09:35:57;;;;;;;6.38;2.35;;;21.90;99.90;;;;;;5073326;28;20039;-37
2023/09/07 09:38:23;;;;;;;2.80;2.30;;;21.90;99.90;;;;;;5075366;28;20036;-36
2023/09/07 09:40:50;;;;;;;4.47;2.75;;;21.90;99.90;;;;;;5074934;28;20032;-38
2023/09/07 09:43:16;;;;;;;4.15;2.63;;;21.90;99.90;;;;;;5075161;28;20016;-39
2023/09/07 09:45:41;;;;;;;3.15;2.30;;;21.90;99.90;;;;;;5075523;28;20024;-40
2023/09/07 09:48:08;;;;;;;3.53;2.25;;;21.90;99.90;;;;;;5075058;28;20414;-40
2023/09/07 09:50:38;;;;;;;4.80;2.38;;;21.90;99.90;;;;;;5074680;28;20543;-40
2023/09/07 09:53:07;;;;;;;6.25;2.97;;;21.90;99.90;;;;;;5074888;28;20103;-40
2023/09/07 09:55:34;;;;;;;3.47;2.15;;;22.00;99.90;;;;;;5074950;28;20052;-40
2023/09/07 09:58:00;;;;;;;4.45;2.45;;;21.90;99.90;;;;;;5074838;28;20033;-39
2023/09/07 10:00:28;;;;;;;3.85;2.40;;;21.90;99.90;;;;;;5074530;28;20036;-40
2023/09/07 10:03:18;;;;;;;5.15;2.70;;;22.00;99.90;;;;;;5074740;28;20025;-40
2023/09/07 10:05:46;;;;;;;4.75;2.30;;;22.00;99.90;;;;;;5074686;28;20041;-39
2023/09/07 10:08:14;;;;;;;3.38;2.13;;;22.00;99.90;;;;;;5074613;28;20473;-39
2023/09/07 10:10:42;;;;;;;4.18;2.30;;;22.00;99.90;;;;;;5074506;28;20521;-39
2023/09/07 10:13:08;;;;;;;3.28;2.47;;;22.00;99.90;;;;;;5074924;28;20413;-39
2023/09/07 10:15:35;;;;;;;2.80;2.13;;;22.10;99.90;;;;;;5074323;28;20017;-36
2023/09/07 10:18:13;;;;;;;2.58;2.05;;;22.00;99.90;;;;;;5074350;28;20028;-37
2023/09/07 10:20:57;;;;;;;4.50;2.30;;;22.10;99.90;;;;;;5074121;28;20115;-39
2023/09/07 10:23:36;;;;;;;;;;;22.10;99.90;;;;;;5074920;28;20048;-39
2023/09/07 10:26:06;;;;;;;4.68;2.33;;;22.10;99.90;;;;;;5074161;28;20284;-38
2023/09/07 10:28:32;;;;;;;3.25;2.53;;;22.10;99.90;;;;;;5074269;28;20075;-38
2023/09/07 10:31:03;;;;;;;3.17;2.10;;;22.10;99.90;;;;;;5074077;28;20421;-38
2023/09/07 10:33:30;;;;;;;3.75;2.08;;;22.10;99.90;;;;;;5074219;28;20020;-39
2023/09/07 10:35:56;;;;;;;2.95;2.28;;;22.10;99.90;;;;;;5074039;28;20020;-40
2023/09/07 10:38:23;;;;;;;4.15;2.10;;;22.10;99.90;;;;;;5074338;28;20432;-40
2023/09/07 10:40:54;;;;;;;4.90;3.30;;;22.20;99.90;;;;;;5073751;28;20142;-40
2023/09/07 10:43:20;;;;;;;7.65;3.30;;;22.20;99.90;;;;;;5074091;28;20021;-40
2023/09/07 10:45:46;;;;;;;5.05;3.20;;;22.30;99.90;;;;;;5073906;28;20385;-39
2023/09/07 10:48:12;;;;;;;6.47;3.05;;;22.30;99.90;;;;;;5073179;28;20100;-39
2023/09/07 10:50:45;;;;;;;3.53;3.10;;;22.30;99.90;;;;;;5073606;28;20036;-40
2023/09/07 10:53:13;;;;;;;4.50;3.00;;;22.30;99.90;;;;;;5073718;28;20420;-38
2023/09/07 10:55:39;;;;;;;4.60;3.25;;;22.30;99.90;;;;;;5073759;28;20098;-39
2023/09/07 10:58:05;;;;;;;6.10;3.00;;;22.30;99.90;;;;;;5073907;28;20024;-39
2023/09/07 11:00:31;;;;;;;3.38;2.80;;;22.30;99.90;;;;;;5073436;28;20035;-38
2023/09/07 11:02:57;;;;;;;4.18;2.90;;;22.30;99.90;;;;;;5073598;28;20075;-40
2023/09/07 11:05:22;;;;;;;6.07;2.97;;;22.40;99.90;;;;;;5073531;28;20024;-39
2023/09/07 11:07:48;;;;;;;3.70;2.72;;;22.40;99.90;;;;;;5073532;28;20064;-40
2023/09/07 11:10:14;;;;;;;3.08;2.67;;;22.40;99.90;;;;;;5073520;28;20035;-37
2023/09/07 11:12:40;;;;;;;3.28;2.78;;;22.40;99.90;;;;;;5073776;28;20079;-36
2023/09/07 11:15:09;;;;;;;4.07;2.67;;;22.30;99.90;;;;;;5073414;28;20499;-36
2023/09/07 11:17:38;;;;;;;3.13;2.63;;;22.40;99.90;;;;;;5073452;28;20484;-40
2023/09/07 11:20:06;;;;;;;2.75;2.40;;;22.40;99.90;;;;;;5072975;28;20021;-39
2023/09/07 11:22:32;;;;;;;2.92;2.45;;;22.40;99.90;;;;;;5073214;28;20394;-39
2023/09/07 11:25:00;;;;;;;3.00;2.40;;;22.40;99.90;;;;;;5073171;28;20027;-39
2023/09/07 11:27:29;;;;;;;2.92;2.60;;;22.40;99.90;;;;;;5072014;28;20048;-39
2023/09/07 11:29:56;;;;;;;5.57;2.75;;;22.40;99.90;;;;;;5073002;28;20021;-42
2023/09/07 11:32:23;;;;;;;2.97;2.50;;;22.50;99.90;;;;;;5073112;28;20063;-40
2023/09/07 11:34:52;;;;;;;2.97;2.55;;;22.50;99.90;;;;;;5072807;28;20103;-41
2023/09/07 11:37:24;;;;;;;4.40;2.40;;;22.50;99.90;;;;;;5073005;28;20386;-46
2023/09/07 11:39:49;;;;;;;4.50;2.60;;;22.40;99.90;;;;;;5072705;28;20074;-42
2023/09/07 11:42:15;;;;;;;3.78;2.40;;;22.40;99.90;;;;;;5073121;28;20500;-41
2023/09/07 11:44:40;;;;;;;3.00;2.40;;;22.50;99.90;;;;;;5072843;28;20039;-42
2023/09/07 11:47:06;;;;;;;3.05;2.53;;;22.50;99.90;;;;;;5072785;28;20020;-42
2023/09/07 11:49:32;;;;;;;2.45;2.25;;;22.50;99.90;;;;;;5072366;28;20036;-49
2023/09/07 11:51:58;;;;;;;4.25;2.47;;;22.50;99.90;;;;;;5072718;28;20096;-40
2023/09/07 11:54:24;;;;;;;3.90;2.65;;;22.50;99.90;;;;;;5072793;28;20024;-44
2023/09/07 11:56:50;;;;;;;2.97;2.53;;;22.50;99.90;;;;;;5072689;28;20608;-41
2023/09/07 11:59:17;;;;;;;2.90;2.45;;;22.50;99.90;;;;;;5071239;28;20060;-44
2023/09/07 12:01:43;;;;;;;5.43;2.72;;;22.50;99.90;;;;;;5072533;28;20136;-43
2023/09/07 12:04:09;;;;;;;2.65;2.40;;;22.50;99.90;;;;;;5072257;28;20253;-40
2023/09/07 12:06:34;;;;;;;3.72;2.45;;;22.50;99.90;;;;;;5072704;28;20043;-46
2023/09/07 12:09:02;;;;;;;4.38;2.50;;;22.50;99.90;;;;;;5072177;28;20024;-42
2023/09/07 12:11:28;;;;;;;3.67;2.60;;;22.50;99.90;;;;;;5072342;28;20025;-42
2023/09/07 12:13:54;;;;;;;3.03;2.38;;;22.50;99.90;;;;;;5072156;28;20033;-43
2023/09/07 12:16:19;;;;;;;3.50;2.75;;;22.50;99.90;;;;;;5072666;28;20071;-40
2023/09/07 12:18:45;;;;;;;3.50;2.40;;;22.50;99.90;;;;;;5070713;28;20032;-40
2023/09/07 12:21:10;;;;;;;4.60;3.40;;;22.50;99.90;;;;;;5072036;28;20021;-43
2023/09/07 12:23:36;;;;;;;4.15;3.30;;;22.60;99.90;;;;;;5072049;28;20485;-39
2023/09/07 12:26:04;;;;;;;4.55;3.30;;;22.60;99.90;;;;;;5071947;28;20024;-44
2023/09/07 12:28:30;;;;;;;6.15;3.20;;;22.60;99.90;;;;;;5072032;28;20405;-42
2023/09/07 12:30:56;;;;;;;4.05;3.25;;;22.70;99.90;;;;;;5071788;28;20021;-42
2023/09/07 12:33:21;;;;;;;9.55;3.33;;;22.70;99.90;;;;;;5072090;28;20028;-37
2023/09/07 12:35:47;;;;;;;5.22;3.40;;;22.70;99.90;;;;;;5071848;28;20029;-38
2023/09/07 12:38:17;;;;;;;6.18;3.38;;;22.70;99.90;;;;;;5071840;28;20078;-39
2023/09/07 12:40:43;;;;;;;3.95;3.10;;;22.70;99.90;;;;;;5071510;28;20023;-37
2023/09/07 12:43:09;;;;;;;6.68;3.20;;;22.70;99.90;;;;;;5071769;28;20028;-38
2023/09/07 12:45:35;;;;;;;3.38;2.90;;;22.70;99.90;;;;;;5071571;28;20016;-37